TimeCST,TemperatureF,Dew PointF,Humidity,Sea Level PressureIn,VisibilityMPH,Wind Direction,Wind SpeedMPH,Gust SpeedMPH,PrecipitationIn,Events,Conditions,WindDirDegrees,DateUTC
12:12 AM,60.8,53.6,77,29.51,10.0,SSW,23.0,29.9,N/A,,Mostly Cloudy,200,2013-11-17 06:12:00
12:22 AM,60.8,53.6,77,29.52,9.0,SSW,25.3,34.5,0.00,Rain,Light Rain,200,2013-11-17 06:22:00
12:52 AM,57.0,53.1,87,29.50,6.0,SSW,18.4,27.6,0.10,Rain,Light Rain,200,2013-11-17 06:52:00
1:52 AM,55.9,53.1,90,29.47,10.0,SSE,11.5,-,0.01,,Mostly Cloudy,160,2013-11-17 07:52:00
2:40 AM,57.2,53.6,88,29.49,10.0,SSW,12.7,28.8,0.00,,Overcast,200,2013-11-17 08:40:00
2:52 AM,57.0,54.0,89,29.48,10.0,WSW,5.8,-,0.00,,Mostly Cloudy,240,2013-11-17 08:52:00
3:13 AM,55.4,53.6,94,29.47,8.0,South,4.6,-,0.00,Rain,Light Rain,170,2013-11-17 09:13:00
3:52 AM,55.9,54.0,93,29.43,8.0,SE,8.1,-,0.00,,Overcast,130,2013-11-17 09:52:00
4:52 AM,57.0,54.0,89,29.40,8.0,SE,10.4,-,0.01,,Overcast,140,2013-11-17 10:52:00
5:45 AM,57.2,55.4,94,29.36,6.0,SSE,12.7,-,0.00,,Overcast,150,2013-11-17 11:45:00
5:52 AM,57.9,55.9,93,29.35,6.0,South,11.5,-,0.00,,Overcast,170,2013-11-17 11:52:00
6:25 AM,60.8,57.2,88,29.33,8.0,South,16.1,-,N/A,,Mostly Cloudy,170,2013-11-17 12:25:00
6:52 AM,61.0,57.9,90,29.34,8.0,South,16.1,-,N/A,,Mostly Cloudy,170,2013-11-17 12:52:00
7:52 AM,62.1,59.0,90,29.32,9.0,South,18.4,-,N/A,,Mostly Cloudy,190,2013-11-17 13:52:00
8:52 AM,64.9,60.1,84,29.30,-9999.0,South,20.7,31.1,N/A,,Scattered Clouds,190,2013-11-17 14:52:00
9:04 AM,64.4,60.8,88,29.31,-9999.0,South,25.3,31.1,N/A,,Mostly Cloudy,190,2013-11-17 15:04:00
9:25 AM,64.4,60.8,88,29.28,-9999.0,South,21.9,28.8,N/A,,Scattered Clouds,190,2013-11-17 15:25:00
9:52 AM,64.9,60.1,84,29.28,-9999.0,SSW,19.6,-,N/A,,Mostly Cloudy,200,2013-11-17 15:52:00
10:52 AM,69.1,60.1,73,29.21,-9999.0,SW,20.7,28.8,N/A,Thunderstorm,Thunderstorm,220,2013-11-17 16:52:00
11:07 AM,57.2,53.6,88,29.22,-9999.0,WNW,20.7,26.5,N/A,Thunderstorm,Thunderstorm,300,2013-11-17 17:07:00
11:50 AM,53.6,50.0,88,29.25,-9999.0,NW,12.7,-,0.27,Rain-Thunderstorm,Light Thunderstorms and Rain,310,2013-11-17 17:50:00
11:52 AM,53.1,50.0,89,29.23,-9999.0,NW,16.1,23.0,0.27,Rain-Thunderstorm,Light Thunderstorms and Rain,320,2013-11-17 17:52:00
12:11 PM,51.8,46.4,82,29.25,-9999.0,NW,21.9,29.9,0.00,Rain,Light Rain,310,2013-11-17 18:11:00
12:52 PM,50.0,43.0,77,29.34,10.0,WNW,31.1,39.1,0.00,,Overcast,300,2013-11-17 18:52:00
1:13 PM,48.2,42.8,82,29.35,10.0,WNW,28.8,40.3,N/A,,Overcast,300,2013-11-17 19:13:00
1:52 PM,48.0,43.0,83,29.41,10.0,West,28.8,36.8,N/A,,Overcast,280,2013-11-17 19:52:00
2:17 PM,46.4,42.8,87,29.44,-9999.0,WNW,28.8,34.5,N/A,,Overcast,290,2013-11-17 20:17:00
2:36 PM,46.4,42.8,87,29.47,-9999.0,WNW,21.9,34.5,N/A,,Overcast,290,2013-11-17 20:36:00
2:52 PM,46.9,42.1,83,29.49,-9999.0,West,25.3,33.4,N/A,,Overcast,280,2013-11-17 20:52:00
3:07 PM,46.4,41.0,81,29.50,-9999.0,WNW,24.2,32.2,N/A,,Overcast,290,2013-11-17 21:07:00
3:22 PM,46.4,41.0,81,29.52,-9999.0,West,23.0,29.9,N/A,,Overcast,280,2013-11-17 21:22:00
3:52 PM,46.9,42.1,83,29.56,-9999.0,West,24.2,-,N/A,,Overcast,280,2013-11-17 21:52:00
4:13 PM,48.2,42.8,82,29.58,-9999.0,West,24.2,32.2,N/A,,Mostly Cloudy,270,2013-11-17 22:13:00
4:37 PM,46.4,42.8,87,29.60,-9999.0,West,27.6,36.8,N/A,,Mostly Cloudy,280,2013-11-17 22:37:00
4:52 PM,46.9,41.0,80,29.61,-9999.0,West,23.0,31.1,N/A,,Mostly Cloudy,280,2013-11-17 22:52:00
5:33 PM,46.4,39.2,76,29.65,-9999.0,West,26.5,-,N/A,,Mostly Cloudy,280,2013-11-17 23:33:00
5:52 PM,46.0,39.9,79,29.68,-9999.0,West,25.3,32.2,N/A,,Overcast,270,2013-11-17 23:52:00
6:52 PM,45.0,39.0,80,29.72,-9999.0,West,15.0,-,N/A,,Mostly Cloudy,280,2013-11-18 00:52:00
7:52 PM,44.1,37.9,79,29.76,-9999.0,West,17.3,-,N/A,,Clear,270,2013-11-18 01:52:00
8:52 PM,42.1,37.0,82,29.79,-9999.0,West,15.0,-,N/A,,Clear,260,2013-11-18 02:52:00
9:52 PM,41.0,37.0,86,29.81,-9999.0,West,12.7,-,N/A,,Clear,260,2013-11-18 03:52:00
10:52 PM,42.1,37.0,82,29.84,-9999.0,West,18.4,-,N/A,,Clear,270,2013-11-18 04:52:00
11:52 PM,39.9,36.0,86,29.88,-9999.0,West,16.1,-,N/A,,Clear,270,2013-11-18 05:52:00